createdAt,value
2023-05-19T00:00:14.795Z,6.90
2023-05-19T00:02:44.365Z,27.53
2023-05-19T00:05:18.553Z,21.13
2023-05-19T00:07:47.670Z,15.03
2023-05-19T00:10:17.964Z,7.77
2023-05-19T00:12:46.940Z,6.97
2023-05-19T00:15:16.364Z,7.67
2023-05-19T00:17:45.594Z,7.23
2023-05-19T00:20:16.058Z,5.80
2023-05-19T00:22:45.163Z,7.10
2023-05-19T00:25:13.662Z,6.60
2023-05-19T00:27:42.211Z,6.53
2023-05-19T00:30:11.268Z,7.23
2023-05-19T00:32:39.904Z,7.47
2023-05-19T00:35:09.460Z,7.40
2023-05-19T00:37:39.426Z,5.77
2023-05-19T00:40:09.509Z,6.40
2023-05-19T00:42:38.041Z,7.53
2023-05-19T00:45:07.773Z,6.30
2023-05-19T00:47:36.425Z,6.50
2023-05-19T00:50:05.268Z,7.20
2023-05-19T00:52:33.810Z,7.43
2023-05-19T00:55:03.712Z,6.67
2023-05-19T00:57:32.188Z,6.90
2023-05-19T01:00:00.823Z,7.47
2023-05-19T01:02:29.857Z,8.03
2023-05-19T01:04:59.036Z,6.57
2023-05-19T01:07:27.816Z,7.03
2023-05-19T01:09:56.776Z,6.23
2023-05-19T01:12:27.316Z,7.50
2023-05-19T01:14:56.249Z,5.80
2023-05-19T01:17:30.797Z,6.13
2023-05-19T01:20:06.937Z,7.50
2023-05-19T01:23:05.721Z,7.73
2023-05-19T01:25:56.001Z,7.07
2023-05-19T01:28:33.534Z,6.23
2023-05-19T01:31:06.213Z,7.07
2023-05-19T01:33:35.422Z,7.27
2023-05-19T01:36:05.453Z,7.20
2023-05-19T01:38:36.094Z,5.87
2023-05-19T01:41:05.497Z,6.67
2023-05-19T01:43:35.090Z,5.33
2023-05-19T01:46:06.369Z,6.60
2023-05-19T01:48:35.117Z,6.97
2023-05-19T01:51:04.045Z,7.30
2023-05-19T01:53:32.588Z,8.33
2023-05-19T01:56:01.418Z,8.90
2023-05-19T01:58:39.673Z,5.70
2023-05-19T02:01:18.063Z,5.90
2023-05-19T02:04:01.317Z,7.00
2023-05-19T02:06:36.751Z,8.23
2023-05-19T02:09:09.086Z,6.50
2023-05-19T02:11:39.137Z,7.97
2023-05-19T02:14:22.036Z,8.90
2023-05-19T02:16:52.112Z,6.43
2023-05-19T02:19:25.707Z,6.27
2023-05-19T02:21:54.454Z,8.17
2023-05-19T02:24:23.104Z,6.60
2023-05-19T02:26:51.899Z,7.33
2023-05-19T02:29:20.715Z,6.50
2023-05-19T02:31:50.986Z,8.00
2023-05-19T02:34:19.675Z,5.70
2023-05-19T02:36:49.818Z,6.10
2023-05-19T02:39:18.469Z,7.73
2023-05-19T02:41:46.914Z,5.67
2023-05-19T02:44:15.391Z,6.00
2023-05-19T02:46:44.021Z,7.83
2023-05-19T02:49:14.169Z,6.53
2023-05-19T02:51:42.624Z,6.83
2023-05-19T02:54:11.270Z,6.30
2023-05-19T02:56:39.787Z,6.17
2023-05-19T02:59:08.344Z,8.93
2023-05-19T03:01:37.769Z,5.90
2023-05-19T03:04:06.814Z,8.43
2023-05-19T03:06:36.852Z,6.00
2023-05-19T03:09:05.930Z,8.10
2023-05-19T03:11:34.451Z,7.27
2023-05-19T03:14:02.965Z,6.53
2023-05-19T03:16:31.619Z,7.17
2023-05-19T03:19:00.546Z,6.47
2023-05-19T03:21:29.156Z,6.43
2023-05-19T03:23:59.116Z,7.80
2023-05-19T03:26:29.355Z,8.63
2023-05-19T03:28:57.826Z,7.27
2023-05-19T03:31:26.841Z,9.17
2023-05-19T03:33:55.411Z,8.23
2023-05-19T03:36:23.864Z,7.40
2023-05-19T03:38:52.406Z,8.50
2023-05-19T03:41:22.405Z,7.23
2023-05-19T03:43:50.916Z,7.23
2023-05-19T03:46:19.504Z,6.87
2023-05-19T03:48:48.121Z,7.27
2023-05-19T03:51:16.625Z,7.40
2023-05-19T03:53:45.680Z,6.30
2023-05-19T03:56:14.699Z,8.17
2023-05-19T03:58:45.072Z,7.23
2023-05-19T04:01:13.563Z,6.37
2023-05-19T04:03:42.215Z,5.73
2023-05-19T04:06:10.870Z,5.20
2023-05-19T04:08:39.392Z,8.30
2023-05-19T04:11:08.014Z,7.43
2023-05-19T04:13:36.495Z,6.83
2023-05-19T04:16:07.334Z,7.00
2023-05-19T04:18:35.927Z,8.20
2023-05-19T04:21:04.538Z,7.30
2023-05-19T04:23:33.011Z,7.80
2023-05-19T04:26:02.029Z,9.47
2023-05-19T04:28:31.079Z,7.07
2023-05-19T04:31:00.334Z,8.30
2023-05-19T04:33:30.379Z,6.87
2023-05-19T04:35:58.882Z,7.70
2023-05-19T04:38:29.990Z,6.67
2023-05-19T04:41:01.653Z,7.27
2023-05-19T04:43:30.216Z,9.17
2023-05-19T04:45:59.226Z,12.50
2023-05-19T04:48:30.973Z,12.70
2023-05-19T04:51:01.518Z,11.27
2023-05-19T04:53:29.995Z,11.70
2023-05-19T04:56:00.903Z,10.03
2023-05-19T04:58:29.424Z,9.37
2023-05-19T05:00:58.652Z,8.77
2023-05-19T05:03:27.353Z,9.67
2023-05-19T05:05:58.693Z,10.70
2023-05-19T05:08:27.393Z,7.53
2023-05-19T05:10:56.488Z,13.13
2023-05-19T05:13:25.820Z,9.10
2023-05-19T05:15:56.178Z,8.53
2023-05-19T05:18:25.227Z,8.63
2023-05-19T05:20:56.613Z,8.67
2023-05-19T05:23:25.675Z,8.43
2023-05-19T05:25:54.944Z,9.90
2023-05-19T05:28:23.477Z,7.63
2023-05-19T05:30:52.020Z,7.77
2023-05-19T05:33:22.300Z,10.63
2023-05-19T05:35:51.369Z,9.17
2023-05-19T05:38:21.293Z,7.57
2023-05-19T05:40:49.750Z,9.43
2023-05-19T05:43:18.200Z,11.30
2023-05-19T05:45:46.818Z,11.23
2023-05-19T05:48:16.132Z,8.87
2023-05-19T05:50:45.524Z,9.30
2023-05-19T05:53:21.409Z,9.03
2023-05-19T05:55:51.286Z,10.70
2023-05-19T05:58:21.262Z,13.60
2023-05-19T06:00:51.506Z,10.73
2023-05-19T06:03:24.441Z,9.60
2023-05-19T06:05:53.181Z,8.63
2023-05-19T06:08:23.091Z,9.60
2023-05-19T06:10:51.556Z,9.40
2023-05-19T06:13:22.688Z,10.47
2023-05-19T06:15:52.059Z,9.93
2023-05-19T06:18:20.616Z,11.17
2023-05-19T06:20:49.052Z,10.60
2023-05-19T06:23:17.526Z,11.23
2023-05-19T06:25:47.445Z,9.77
2023-05-19T06:28:16.391Z,9.30
2023-05-19T06:30:44.880Z,10.40
2023-05-19T06:33:13.308Z,11.80
2023-05-19T06:35:41.757Z,11.33
2023-05-19T06:38:10.201Z,13.10
2023-05-19T06:40:38.746Z,10.10
2023-05-19T06:43:08.590Z,11.27
2023-05-19T06:45:37.122Z,11.27
2023-05-19T06:48:06.399Z,11.03
2023-05-19T06:50:35.254Z,10.90
2023-05-19T06:53:03.997Z,9.67
2023-05-19T06:55:32.433Z,12.90
2023-05-19T06:58:00.832Z,9.70
2023-05-19T07:00:30.699Z,11.03
2023-05-19T07:02:59.196Z,11.30
2023-05-19T07:05:27.731Z,9.90
2023-05-19T07:07:56.282Z,10.83
2023-05-19T07:10:24.803Z,11.97
2023-05-19T07:12:53.262Z,10.97
2023-05-19T07:15:21.723Z,10.23
2023-05-19T07:17:51.611Z,10.43
2023-05-19T07:20:20.295Z,12.17
2023-05-19T07:22:48.812Z,13.03
2023-05-19T07:25:17.471Z,10.27
2023-05-19T07:27:46.347Z,12.40
2023-05-19T07:30:15.014Z,9.77
2023-05-19T07:32:43.537Z,9.50
2023-05-19T07:35:13.465Z,9.93
2023-05-19T07:37:41.984Z,10.43
2023-05-19T07:40:10.946Z,9.67
2023-05-19T07:42:39.388Z,9.83
2023-05-19T07:45:08.895Z,10.20
2023-05-19T07:47:37.757Z,10.07
2023-05-19T07:50:07.341Z,8.97
2023-05-19T07:52:38.382Z,9.43
2023-05-19T07:55:07.403Z,8.43
2023-05-19T07:57:35.955Z,10.20
2023-05-19T08:00:07.752Z,8.93
2023-05-19T08:02:36.321Z,12.20
2023-05-19T08:05:05.109Z,9.23
2023-05-19T08:07:33.560Z,11.23
2023-05-19T08:10:03.464Z,13.17
2023-05-19T08:12:32.417Z,10.50
2023-05-19T08:15:01.824Z,19.40
2023-05-19T08:17:30.657Z,19.03
2023-05-19T08:20:00.371Z,13.87
2023-05-19T08:22:29.200Z,13.07
2023-05-19T08:24:58.091Z,10.20
2023-05-19T08:27:28.040Z,11.63
2023-05-19T08:29:57.322Z,9.63
2023-05-19T08:32:25.835Z,9.87
2023-05-19T08:34:54.409Z,9.77
2023-05-19T08:37:22.935Z,10.07
2023-05-19T08:39:51.423Z,8.83
2023-05-19T08:42:19.862Z,13.40
2023-05-19T08:44:49.745Z,12.37
2023-05-19T08:47:19.795Z,8.47
2023-05-19T08:49:51.659Z,8.40
2023-05-19T08:52:27.723Z,8.27
2023-05-19T08:55:03.515Z,6.77
2023-05-19T08:57:32.785Z,6.73
2023-05-19T09:00:05.324Z,8.57
2023-05-19T09:02:34.470Z,10.67
2023-05-19T09:05:03.418Z,7.83
2023-05-19T09:07:34.848Z,13.17
2023-05-19T09:10:03.900Z,6.97
2023-05-19T09:12:32.458Z,6.70
2023-05-19T09:15:02.409Z,8.10
2023-05-19T09:17:31.025Z,6.70
2023-05-19T09:20:04.379Z,6.57
2023-05-19T09:22:35.762Z,8.00
2023-05-19T09:25:04.636Z,7.57
2023-05-19T09:27:34.145Z,6.63
2023-05-19T09:30:10.562Z,5.97
2023-05-19T09:32:39.182Z,7.10
2023-05-19T09:35:08.777Z,7.20
2023-05-19T09:37:40.250Z,8.20
2023-05-19T09:40:11.923Z,9.47
2023-05-19T09:42:43.106Z,7.43
2023-05-19T09:45:13.107Z,6.97
2023-05-19T09:47:42.486Z,6.33
2023-05-19T09:50:12.692Z,6.80
2023-05-19T09:52:44.087Z,8.60
2023-05-19T09:55:14.237Z,7.47
2023-05-19T09:57:42.953Z,6.97
2023-05-19T10:00:15.460Z,8.53
2023-05-19T10:02:45.412Z,8.23
2023-05-19T10:05:17.339Z,8.47
2023-05-19T10:07:48.559Z,7.03
2023-05-19T10:10:17.402Z,17.17
2023-05-19T10:12:46.321Z,8.67
2023-05-19T10:15:17.324Z,10.67
2023-05-19T10:17:46.483Z,10.27
2023-05-19T10:20:16.192Z,9.43
2023-05-19T10:22:45.939Z,6.90
2023-05-19T10:25:15.253Z,6.43
2023-05-19T10:27:46.350Z,7.00
2023-05-19T10:30:19.265Z,7.90
2023-05-19T10:32:49.735Z,7.07
2023-05-19T10:35:29.604Z,7.73
2023-05-19T10:38:04.392Z,6.67
2023-05-19T10:40:38.238Z,6.03
2023-05-19T10:43:19.152Z,7.70
2023-05-19T10:45:50.507Z,7.07
2023-05-19T10:48:21.608Z,8.33
2023-05-19T10:50:50.680Z,6.97
2023-05-19T10:53:22.083Z,6.07
2023-05-19T10:55:56.037Z,7.87
2023-05-19T10:58:41.693Z,6.40
2023-05-19T11:01:17.610Z,5.93
2023-05-19T11:03:50.157Z,5.73
2023-05-19T11:06:23.594Z,6.63
2023-05-19T11:08:55.500Z,6.23
2023-05-19T11:11:24.258Z,7.37
2023-05-19T11:13:53.301Z,5.80
2023-05-19T11:16:28.536Z,4.73
2023-05-19T11:18:57.461Z,5.57
2023-05-19T11:21:26.424Z,4.07
2023-05-19T11:23:55.151Z,4.87
2023-05-19T11:26:44.011Z,3.13
2023-05-19T11:29:13.114Z,3.27
2023-05-19T11:31:44.425Z,3.90
2023-05-19T11:34:13.988Z,3.23
2023-05-19T11:36:43.323Z,5.20
2023-05-19T11:39:11.824Z,6.03
2023-05-19T11:41:41.765Z,6.43
2023-05-19T11:44:12.393Z,5.80
2023-05-19T11:46:42.327Z,4.90
2023-05-19T11:49:10.886Z,3.93
2023-05-19T11:51:39.658Z,7.87
2023-05-19T11:54:08.256Z,5.77
2023-05-19T11:56:41.620Z,3.67
2023-05-19T11:59:10.400Z,4.73
2023-05-19T12:01:39.139Z,3.50
2023-05-19T12:04:10.934Z,3.60
2023-05-19T12:06:39.539Z,4.33
2023-05-19T12:09:09.290Z,5.43
2023-05-19T12:11:39.394Z,5.67
2023-05-19T12:14:08.753Z,3.77
2023-05-19T12:16:37.304Z,3.83
2023-05-19T12:19:07.231Z,3.80
2023-05-19T12:21:38.841Z,4.83
2023-05-19T12:24:08.019Z,4.37
2023-05-19T12:26:37.730Z,5.30
2023-05-19T12:29:07.746Z,3.47
2023-05-19T12:31:36.283Z,4.90
2023-05-19T12:34:04.857Z,5.10
2023-05-19T12:36:33.555Z,3.40
2023-05-19T12:39:04.628Z,3.90
2023-05-19T12:41:33.263Z,5.50
2023-05-19T12:44:01.801Z,3.40
2023-05-19T12:46:34.344Z,4.30
2023-05-19T12:49:02.948Z,3.67
2023-05-19T12:51:31.402Z,4.73
2023-05-19T12:53:59.976Z,5.93
2023-05-19T12:56:30.436Z,3.47
2023-05-19T12:58:58.874Z,4.77
2023-05-19T13:01:27.548Z,4.00
2023-05-19T13:03:56.394Z,3.20
2023-05-19T13:06:25.082Z,4.70
2023-05-19T13:08:53.776Z,4.13
2023-05-19T13:11:22.331Z,4.10
2023-05-19T13:13:52.782Z,5.20
2023-05-19T13:16:21.253Z,3.50
2023-05-19T13:18:49.817Z,4.63
2023-05-19T13:21:18.544Z,4.73
2023-05-19T13:23:47.678Z,3.53
2023-05-19T13:26:16.377Z,4.43
2023-05-19T13:28:44.926Z,4.00
2023-05-19T13:31:15.024Z,4.97
2023-05-19T13:33:43.694Z,5.40
2023-05-19T13:36:12.332Z,3.47
2023-05-19T13:38:41.904Z,6.37
2023-05-19T13:41:10.943Z,5.03
2023-05-19T13:43:39.493Z,5.90
2023-05-19T13:46:08.021Z,5.07
2023-05-19T13:48:37.892Z,4.50
2023-05-19T13:51:06.358Z,4.67
2023-05-19T13:53:35.116Z,5.30
2023-05-19T13:56:03.948Z,6.87
2023-05-19T13:58:32.409Z,4.90
2023-05-19T14:01:00.932Z,3.90
2023-05-19T14:03:29.917Z,5.30
2023-05-19T14:05:59.870Z,4.53
2023-05-19T14:08:28.558Z,4.13
2023-05-19T14:10:57.170Z,5.20
2023-05-19T14:13:33.668Z,4.63
2023-05-19T14:16:03.840Z,4.80
2023-05-19T14:18:32.547Z,3.93
2023-05-19T14:21:02.411Z,4.47
2023-05-19T14:23:31.048Z,5.10
2023-05-19T14:25:59.525Z,5.57
2023-05-19T14:28:28.095Z,5.63
2023-05-19T14:30:56.759Z,5.30
2023-05-19T14:33:25.249Z,4.97
2023-05-19T14:35:53.961Z,6.47
2023-05-19T14:38:23.861Z,5.13
2023-05-19T14:40:52.685Z,4.47
2023-05-19T14:43:21.226Z,5.93
2023-05-19T14:45:50.191Z,4.43
2023-05-19T14:48:19.027Z,4.83
2023-05-19T14:50:49.145Z,7.33
2023-05-19T14:53:17.964Z,7.53
2023-05-19T14:55:48.814Z,9.30
2023-05-19T14:58:28.351Z,5.67
2023-05-19T15:01:03.609Z,6.33
2023-05-19T15:03:32.179Z,6.27
2023-05-19T15:06:01.295Z,8.27
2023-05-19T15:08:29.875Z,5.37
2023-05-19T15:10:59.701Z,5.60
2023-05-19T15:13:28.229Z,5.33
2023-05-19T15:16:08.418Z,6.83
2023-05-19T15:18:43.872Z,11.90
2023-05-19T15:21:12.514Z,13.10
2023-05-19T15:23:41.067Z,31.80
2023-05-19T15:26:10.968Z,27.50
2023-05-19T15:28:39.405Z,7.97
2023-05-19T15:31:08.272Z,5.73
2023-05-19T15:33:37.274Z,6.63
2023-05-19T15:36:06.264Z,5.43
2023-05-19T15:38:37.355Z,6.10
2023-05-19T15:41:08.744Z,5.77
2023-05-19T15:43:38.845Z,6.03
2023-05-19T15:46:07.577Z,5.23
2023-05-19T15:48:36.186Z,4.73
2023-05-19T15:51:04.932Z,4.43
2023-05-19T15:53:33.382Z,4.33
2023-05-19T15:56:03.885Z,4.50
2023-05-19T15:58:33.280Z,4.40
2023-05-19T16:01:03.413Z,4.73
2023-05-19T16:03:32.037Z,5.87
2023-05-19T16:06:00.844Z,6.83
2023-05-19T16:08:29.495Z,4.77
2023-05-19T16:10:57.966Z,4.73
2023-05-19T16:13:26.460Z,5.70
2023-05-19T16:15:55.044Z,4.77
2023-05-19T16:18:24.952Z,5.60
2023-05-19T16:20:53.476Z,4.33
2023-05-19T16:23:21.977Z,5.83
2023-05-19T16:25:50.476Z,5.63
2023-05-19T16:28:19.425Z,5.13
2023-05-19T16:30:47.992Z,5.87
2023-05-19T16:33:16.529Z,6.43
2023-05-19T16:35:46.380Z,7.57
2023-05-19T16:38:14.873Z,6.73
2023-05-19T16:40:44.660Z,5.80
2023-05-19T16:43:13.108Z,5.47
2023-05-19T16:45:41.653Z,5.77
2023-05-19T16:48:10.485Z,6.60
2023-05-19T16:50:39.823Z,5.13
2023-05-19T16:53:09.870Z,4.73
2023-05-19T16:55:38.349Z,5.57
2023-05-19T16:58:06.847Z,6.27
2023-05-19T17:00:35.607Z,6.03
2023-05-19T17:03:04.588Z,4.93
2023-05-19T17:05:33.165Z,7.07
2023-05-19T17:08:01.901Z,5.53
2023-05-19T17:10:31.856Z,5.63
2023-05-19T17:13:00.546Z,14.03
2023-05-19T17:15:29.435Z,9.50
2023-05-19T17:17:58.273Z,10.93
2023-05-19T17:20:26.767Z,6.87
2023-05-19T17:22:55.509Z,4.83
2023-05-19T17:25:24.118Z,4.30
2023-05-19T17:27:55.216Z,4.97
2023-05-19T17:30:23.804Z,4.60
2023-05-19T17:32:52.640Z,4.47
2023-05-19T17:35:23.376Z,4.27
2023-05-19T17:37:51.829Z,5.03
2023-05-19T17:40:20.576Z,4.63
2023-05-19T17:42:49.052Z,6.07
2023-05-19T17:45:19.254Z,7.60
2023-05-19T17:47:47.721Z,6.50
2023-05-19T17:50:16.629Z,5.60
2023-05-19T17:52:45.826Z,5.03
2023-05-19T17:55:17.847Z,5.67
2023-05-19T17:57:47.762Z,6.50
2023-05-19T18:00:18.585Z,6.30
2023-05-19T18:02:47.877Z,5.57
2023-05-19T18:05:17.363Z,5.73
2023-05-19T18:07:46.299Z,5.60
2023-05-19T18:10:16.871Z,5.57
2023-05-19T18:12:45.431Z,5.10
2023-05-19T18:15:13.950Z,6.63
2023-05-19T18:17:43.866Z,5.77
2023-05-19T18:20:13.678Z,6.30
2023-05-19T18:22:42.139Z,5.47
2023-05-19T18:25:11.256Z,6.87
2023-05-19T18:27:39.868Z,6.97
2023-05-19T18:30:09.639Z,6.57
2023-05-19T18:32:38.462Z,8.53
2023-05-19T18:35:09.443Z,6.27
2023-05-19T18:37:38.017Z,6.40
2023-05-19T18:40:08.220Z,7.23
2023-05-19T18:42:36.961Z,6.80
2023-05-19T18:45:06.784Z,7.13
2023-05-19T18:47:35.696Z,6.30
2023-05-19T18:50:04.493Z,7.07
2023-05-19T18:52:34.360Z,8.77
2023-05-19T18:55:03.727Z,8.90
2023-05-19T18:57:32.297Z,9.53
2023-05-19T19:00:00.999Z,9.17
2023-05-19T19:02:29.552Z,8.10
2023-05-19T19:04:58.349Z,7.80
2023-05-19T19:07:27.819Z,9.23
2023-05-19T19:09:57.862Z,12.83
2023-05-19T19:12:26.370Z,9.97
2023-05-19T19:14:55.021Z,9.10
2023-05-19T19:17:23.720Z,9.63
2023-05-19T19:20:09.727Z,11.60
2023-05-19T19:22:38.432Z,8.27
2023-05-19T19:25:07.511Z,11.27
2023-05-19T19:27:36.099Z,9.30
2023-05-19T19:30:05.031Z,9.13
2023-05-19T19:32:33.683Z,8.80
2023-05-19T19:35:02.232Z,7.23
2023-05-19T19:37:32.176Z,7.53
2023-05-19T19:40:00.816Z,7.93
2023-05-19T19:42:29.264Z,7.77
2023-05-19T19:44:57.787Z,9.27
2023-05-19T19:47:26.341Z,7.03
2023-05-19T19:49:55.921Z,7.97
2023-05-19T19:52:24.441Z,7.23
2023-05-19T19:54:54.329Z,6.80
2023-05-19T19:57:22.883Z,8.27
2023-05-19T19:59:55.087Z,7.70
2023-05-19T20:02:23.829Z,10.37
2023-05-19T20:04:52.256Z,8.53
2023-05-19T20:07:20.935Z,10.67
2023-05-19T20:09:51.613Z,9.00
2023-05-19T20:12:21.416Z,7.67
2023-05-19T20:14:51.429Z,7.90
2023-05-19T20:17:19.938Z,9.17
2023-05-19T20:19:48.427Z,8.83
2023-05-19T20:22:16.909Z,6.93
2023-05-19T20:24:46.036Z,7.53
2023-05-19T20:27:14.516Z,9.13
2023-05-19T20:29:45.496Z,7.60
2023-05-19T20:32:14.100Z,8.77
2023-05-19T20:34:42.937Z,7.83
2023-05-19T20:37:11.694Z,7.00
2023-05-19T20:39:40.381Z,7.70
2023-05-19T20:42:08.953Z,7.03
2023-05-19T20:44:37.485Z,13.47
2023-05-19T20:47:08.796Z,11.07
2023-05-19T20:49:37.216Z,6.80
2023-05-19T20:52:06.059Z,5.87
2023-05-19T20:54:34.524Z,7.90
2023-05-19T20:57:06.430Z,7.67
2023-05-19T20:59:34.911Z,8.03
2023-05-19T21:02:03.676Z,9.10
2023-05-19T21:04:33.929Z,8.33
2023-05-19T21:07:05.196Z,8.77
2023-05-19T21:09:33.836Z,9.03
2023-05-19T21:12:02.911Z,8.63
2023-05-19T21:14:31.408Z,7.37
2023-05-19T21:16:59.900Z,7.13
2023-05-19T21:19:28.550Z,7.50
2023-05-19T21:21:58.500Z,7.63
2023-05-19T21:24:28.338Z,6.27
2023-05-19T21:26:56.853Z,6.33
2023-05-19T21:29:25.984Z,6.57
2023-05-19T21:31:56.187Z,6.70
2023-05-19T21:34:24.894Z,6.10
2023-05-19T21:36:53.417Z,7.93
2023-05-19T21:39:23.224Z,7.17
2023-05-19T21:41:52.311Z,6.77
2023-05-19T21:44:21.892Z,8.63
2023-05-19T21:46:50.603Z,7.43
2023-05-19T21:49:20.045Z,8.03
2023-05-19T21:51:48.617Z,7.33
2023-05-19T21:54:17.122Z,7.13
2023-05-19T21:56:47.008Z,7.80
2023-05-19T21:59:15.457Z,7.70
2023-05-19T22:01:44.119Z,7.00
2023-05-19T22:04:13.525Z,8.50
2023-05-19T22:06:42.373Z,7.07
2023-05-19T22:09:10.970Z,6.60
2023-05-19T22:11:39.812Z,7.13
2023-05-19T22:14:09.638Z,7.93
2023-05-19T22:16:38.186Z,6.90
2023-05-19T22:19:07.096Z,6.67
2023-05-19T22:21:35.622Z,7.17
2023-05-19T22:24:04.652Z,8.17
2023-05-19T22:26:34.450Z,6.93
2023-05-19T22:29:03.333Z,9.67
2023-05-19T22:31:33.228Z,7.67
2023-05-19T22:34:01.828Z,6.77
2023-05-19T22:36:31.240Z,6.40
2023-05-19T22:38:59.752Z,6.93
2023-05-19T22:41:28.241Z,6.90
2023-05-19T22:43:56.686Z,6.10
2023-05-19T22:46:25.242Z,7.77
2023-05-19T22:48:55.109Z,8.47
2023-05-19T22:51:23.623Z,8.33
2023-05-19T22:53:52.090Z,6.70
2023-05-19T22:56:20.952Z,7.37
2023-05-19T22:58:49.414Z,7.83
2023-05-19T23:01:18.745Z,6.83
2023-05-19T23:03:47.309Z,6.20
2023-05-19T23:06:17.208Z,6.07
2023-05-19T23:08:47.219Z,7.30
2023-05-19T23:11:15.946Z,6.50
2023-05-19T23:13:44.391Z,7.53
2023-05-19T23:16:12.829Z,6.83
2023-05-19T23:18:41.583Z,6.30
2023-05-19T23:21:10.151Z,6.90
2023-05-19T23:23:39.966Z,8.77
2023-05-19T23:26:08.431Z,7.50
2023-05-19T23:28:36.885Z,7.43
2023-05-19T23:31:05.408Z,7.40
2023-05-19T23:33:33.880Z,8.53
2023-05-19T23:36:07.457Z,7.57
2023-05-19T23:38:35.994Z,10.33
2023-05-19T23:41:06.055Z,7.93
2023-05-19T23:43:34.572Z,7.93
2023-05-19T23:46:03.089Z,8.20
2023-05-19T23:48:31.667Z,8.47
2023-05-19T23:51:00.163Z,9.17
2023-05-19T23:53:28.617Z,8.57
2023-05-19T23:55:58.584Z,9.10
2023-05-19T23:58:28.742Z,9.10
